Rouyn Noranda Airport
CYUY : now visible

Airfield :











YOU CAN JOIN US ON...

 
LOGIN :

Register | Disclaimer

   EN    FR    IT 

 









Legend :    VFR   Marginal VFR   IFR   Intensive IFR   Very Intensive IFR
Visi :
Ceiling :
>= 8 km
>= 3000ft
5 to 8 km
1000 to 3000 ft
1500m to 5 km
500 to 1000 ft
800 to 1500m
200 to 500 ft
< 800m
< 200 ft
Symbols :   Thunderstorms  Fog  Heavy snow  Heavy precipitations  Wind > 20 kt






- Airport Elevation : 988 ft
- IATA code : YUY


CYUY - Rouyn Noranda

CURRENT METAR :
  • 041600Z 03010KT 350V080 15SM FEW025 SCT054 BKN069 17/11 A3004 RMK CU1SC2AC4 SLP178 DENSITY ALT 1400FT

EXPIRED METARs :
  • 041500Z 04011KT 15SM FEW020 BKN054 BKN100 BKN230 16/10 A3007 RMK CU1SC6AC1CI1 CU TR CI TR SLP189 DENSITY ALT 1200FT
  • 041400Z 02006KT 15SM FEW012 BKN054 BKN100 14/10 A3008 RMK CF1SC6AC1 CF TR SLP193 DENSITY ALT 1000FT

TAF TAF CYUY
Valid from the 04 at 12:00 until the 05 at 00:00 UTC


041138Z 0412/0424 01005KT P6SM OVC060
TEMPO 0412/0419 P6SM -SHRA
BECMG 0412/0414 04008KT
FM041900 03008KT P6SM -SHRA BKN020 OVC040
FM042200 03008KT 4SM -RA BR BKN006 OVC020 RMK NXT FCST BY 041800Z
CZUL FIR / North America



MET'MAP, your aeronautical weather chart ! - Copyright ORBIFLY December 2007 - Disclaimer

ORBIFLY MET'MAP TEAM :

Programming & Development : Alexandra Zaïnal
Concept & original design : Baudouin d'Aumeries
Assistance for programming : Marc-Olivier Méhu
Technical & hardware support : Manuel Goepfert

Contact : metmap@orbifly.com




SOURCES & CREDITS :

   NOAA       Earth
Advisory